Time;durP1;ratioP1;P1;durP2;ratioP2;P2;SDS_P1;SDS_P2;PMS_P1;PMS_P2;Temp;Humidity;BMP_temperature;BMP_pressure;BME280_temperature;BME280_humidity;BME280_pressure;Samples;Min_cycle;Max_cycle;Signal;HPM_P1;HPM_P2
2022/12/09 00:00:18;;;;;;;44.03;18.90;;;;;;;1.20;100.00;99416.13;20986947;28;20067;-71
2022/12/09 00:10:19;;;;;;;36.63;19.73;;;;;;;0.96;100.00;99409.09;21060748;28;20051;-71
2022/12/09 00:20:20;;;;;;;41.40;18.90;;;;;;;0.84;100.00;99415.00;21070276;28;20058;-71
2022/12/09 00:30:22;;;;;;;39.35;19.13;;;;;;;0.62;100.00;99398.50;21068590;28;20056;-70
2022/12/09 00:40:23;;;;;;;39.35;18.95;;;;;;;0.39;100.00;99395.75;21068226;28;20048;-70
2022/12/09 00:50:25;;;;;;;39.22;18.30;;;;;;;0.13;100.00;99382.63;21067954;28;20056;-70
2022/12/09 01:00:26;;;;;;;36.22;17.52;;;;;;;-0.08;100.00;99391.00;21067342;28;20055;-70
2022/12/09 01:10:27;;;;;;;33.25;17.35;;;;;;;-0.08;100.00;99395.28;21063700;28;20074;-70
2022/12/09 01:20:29;;;;;;;35.50;17.10;;;;;;;-0.46;100.00;99393.13;21046746;28;20049;-71
2022/12/09 01:30:30;;;;;;;33.92;16.40;;;;;;;-0.50;100.00;99378.50;21000741;28;20049;-75
2022/12/09 01:40:32;;;;;;;33.60;16.73;;;;;;;-0.65;100.00;99391.16;20999013;28;20109;-74
2022/12/09 01:50:33;;;;;;;36.75;17.58;;;;;;;-0.69;100.00;99386.81;20998428;28;20102;-77
2022/12/09 02:00:35;;;;;;;37.22;16.90;;;;;;;-0.84;100.00;99382.34;20997287;28;20059;-76
2022/12/09 02:10:36;;;;;;;37.47;17.38;;;;;;;-0.88;100.00;99360.88;20996623;28;20048;-75
2022/12/09 02:20:37;;;;;;;42.22;17.92;;;;;;;-0.95;100.00;99348.81;21032167;28;20110;-76
2022/12/09 02:30:39;;;;;;;35.72;17.35;;;;;;;-0.99;100.00;99339.31;21030195;28;20122;-76
2022/12/09 02:40:40;;;;;;;37.92;16.88;;;;;;;-1.06;100.00;99324.66;21000394;28;20064;-79
2022/12/09 02:50:42;;;;;;;35.58;16.73;;;;;;;-1.16;100.00;99308.25;21001171;28;20416;-78
2022/12/09 03:00:43;;;;;;;35.80;18.15;;;;;;;-1.18;100.00;99303.97;20997851;28;20049;-77
2022/12/09 03:10:45;;;;;;;30.70;15.45;;;;;;;-1.34;100.00;99288.34;20991752;28;20064;-77
2022/12/09 03:20:47;;;;;;;37.35;19.42;;;;;;;-1.43;100.00;99280.50;20994388;28;20465;-79
2022/12/09 03:30:48;;;;;;;34.83;17.13;;;;;;;-1.50;100.00;99273.53;20994788;28;20103;-80
2022/12/09 03:40:50;;;;;;;31.90;17.02;;;;;;;-1.56;100.00;99279.47;21010879;28;20049;-80
2022/12/09 03:50:51;;;;;;;36.30;16.95;;;;;;;-1.55;100.00;99285.44;21006202;28;20056;-80
2022/12/09 04:00:52;;;;;;;35.47;17.88;;;;;;;-1.59;100.00;99265.72;21003523;28;20044;-80
2022/12/09 04:10:54;;;;;;;38.58;18.27;;;;;;;-1.68;100.00;99270.72;21006020;28;20048;-79
2022/12/09 04:20:55;;;;;;;34.03;18.50;;;;;;;-1.76;100.00;99262.06;21066821;28;20516;-81
2022/12/09 04:30:57;;;;;;;36.42;17.42;;;;;;;-1.75;100.00;99259.50;21082511;28;20082;-80
2022/12/09 04:40:58;;;;;;;39.33;19.17;;;;;;;-1.70;100.00;99251.88;21088303;28;20142;-80
2022/12/09 04:51:00;;;;;;;45.40;20.20;;;;;;;-1.69;100.00;99226.22;21068994;28;20051;-80
2022/12/09 05:01:01;;;;;;;37.85;20.02;;;;;;;-1.62;100.00;99224.63;21085976;28;20044;-78
2022/12/09 05:11:03;;;;;;;40.67;19.92;;;;;;;-1.64;100.00;99222.00;21056962;22;20056;-73
2022/12/09 05:21:05;;;;;;;43.47;20.88;;;;;;;-1.43;100.00;99211.19;20985832;28;20493;-71
2022/12/09 05:31:06;;;;;;;37.22;18.67;;;;;;;-1.53;100.00;99199.09;20983573;28;20106;-71
2022/12/09 05:41:08;;;;;;;42.13;19.85;;;;;;;-1.64;100.00;99195.50;20983829;28;20118;-71
2022/12/09 05:51:09;;;;;;;36.63;17.92;;;;;;;-1.59;100.00;99199.84;20982544;28;20057;-71
2022/12/09 06:01:11;;;;;;;44.22;21.60;;;;;;;-1.56;100.00;99193.91;20984433;28;20080;-71
2022/12/09 06:11:12;;;;;;;42.88;20.50;;;;;;;-1.53;100.00;99193.94;20998139;28;20515;-72
2022/12/09 06:21:14;;;;;;;45.45;22.70;;;;;;;-1.58;100.00;99187.91;20958583;28;20057;-71
2022/12/09 06:31:16;;;;;;;51.55;23.38;;;;;;;-1.53;100.00;99186.25;20912875;28;20052;-71
2022/12/09 06:41:18;;;;;;;40.78;20.52;;;;;;;-1.57;100.00;99190.47;20912573;28;20051;-71
2022/12/09 06:51:19;;;;;;;53.50;24.23;;;;;;;-1.56;100.00;99188.78;20913115;28;20057;-74
2022/12/09 07:01:21;;;;;;;56.03;24.67;;;;;;;-1.48;100.00;99182.03;20911031;28;20099;-73
2022/12/09 07:11:23;;;;;;;52.65;27.17;;;;;;;-1.45;100.00;99184.63;20958290;28;20056;-69
2022/12/09 07:21:25;;;;;;;50.75;25.75;;;;;;;-1.42;100.00;99174.41;20987074;28;20056;-69
2022/12/09 07:31:27;;;;;;;50.25;24.48;;;;;;;-1.39;100.00;99179.59;20989032;28;20084;-69
2022/12/09 07:41:28;;;;;;;59.08;27.80;;;;;;;-1.30;100.00;99174.53;20991052;28;20080;-69
2022/12/09 07:51:30;;;;;;;53.67;24.30;;;;;;;-1.13;100.00;99173.91;20989012;28;20060;-69
2022/12/09 08:01:32;;;;;;;53.30;26.23;;;;;;;-1.09;100.00;99175.66;20960574;28;20468;-69
2022/12/09 08:11:33;;;;;;;60.85;26.75;;;;;;;-1.01;100.00;99175.72;20936547;28;20045;-69
2022/12/09 08:21:35;;;;;;;66.88;30.85;;;;;;;-0.89;100.00;99168.16;20941037;28;20106;-69
2022/12/09 08:31:37;;;;;;;64.80;27.70;;;;;;;-0.79;100.00;99160.56;20932918;28;20049;-68
2022/12/09 08:41:42;;;;;;;65.93;29.67;;;;;;;-0.60;100.00;99156.44;20903077;28;20053;-68
2022/12/09 08:51:44;;;;;;;70.45;32.88;;;;;;;-0.39;100.00;99160.91;20901776;28;20053;-70
2022/12/09 09:01:45;;;;;;;63.08;27.20;;;;;;;-0.07;100.00;99155.16;20902185;28;20055;-72
2022/12/09 09:11:47;;;;;;;58.17;26.85;;;;;;;0.32;100.00;99146.81;20902013;28;20072;-74
2022/12/09 09:21:49;;;;;;;53.10;25.08;;;;;;;0.58;100.00;99143.50;20945266;28;20416;-74
2022/12/09 09:31:52;;;;;;;55.85;24.30;;;;;;;0.88;100.00;99132.44;20983530;28;20056;-75
2022/12/09 09:41:55;;;;;;;42.83;20.75;;;;;;;1.12;100.00;99114.44;20994755;28;20139;-76
2022/12/09 09:51:56;;;;;;;43.75;20.08;;;;;;;1.23;100.00;99110.16;20999625;28;20548;-75
2022/12/09 10:01:58;;;;;;;46.85;21.33;;;;;;;0.92;100.00;99103.25;20997771;28;20530;-75
2022/12/09 10:12:00;;;;;;;66.07;27.88;;;;;;;0.87;100.00;99102.38;20996487;28;20473;-73
2022/12/09 10:22:02;;;;;;;57.92;26.10;;;;;;;0.84;100.00;99084.31;20951745;28;20056;-73
2022/12/09 10:32:04;;;;;;;59.03;27.73;;;;;;;0.83;100.00;99080.03;20911260;28;20060;-72
2022/12/09 10:52:34;;;;;;;46.63;22.88;;;;;;;1.33;100.00;99050.84;20910446;28;20148;-73
2022/12/09 11:02:36;;;;;;;48.53;21.38;;;;;;;1.44;100.00;99062.06;20910745;28;20512;-73
2022/12/09 11:12:39;;;;;;;47.45;22.45;;;;;;;1.72;100.00;99043.06;20919029;28;20049;-74
2022/12/09 11:22:42;;;;;;;34.95;18.38;;;;;;;1.92;100.00;99052.50;20990792;28;20052;-75
2022/12/09 11:32:44;;;;;;;33.03;17.35;;;;;;;1.99;100.00;99023.22;20990003;28;20114;-75
2022/12/09 11:42:45;;;;;;;32.78;16.58;;;;;;;2.04;100.00;99029.22;20972588;28;20508;-75
2022/12/09 11:52:47;;;;;;;34.60;16.30;;;;;;;2.00;100.00;99023.22;20981256;28;20056;-74
2022/12/09 12:02:48;;;;;;;35.08;17.02;;;;;;;2.11;100.00;99014.56;20987188;28;20052;-73
2022/12/09 12:12:49;;;;;;;34.72;16.00;;;;;;;2.07;100.00;99018.91;20931318;28;20063;-73
2022/12/09 12:22:51;;;;;;;33.22;16.30;;;;;;;2.23;100.00;99009.38;20931555;28;20052;-73
2022/12/09 12:32:55;;;;;;;32.60;15.65;;;;;;;2.35;100.00;99005.84;20907382;28;20099;-75
2022/12/09 12:53:36;;;;;;;38.20;17.30;;;;;;;2.51;100.00;99007.50;20901460;28;20551;-77
2022/12/09 13:03:38;;;;;;;34.38;18.33;;;;;;;2.51;100.00;99002.34;20901088;28;20472;-76
2022/12/09 13:13:39;;;;;;;34.78;17.70;;;;;;;2.50;100.00;99003.22;20926623;28;20056;-76
2022/12/09 13:23:40;;;;;;;37.17;18.92;;;;;;;2.64;100.00;98995.38;20940924;28;20057;-73
2022/12/09 13:33:41;;;;;;;42.28;18.85;;;;;;;2.85;100.00;98989.19;20914675;28;20056;-71
2022/12/09 13:43:43;;;;;;;37.42;18.92;;;;;;;2.73;100.00;98995.28;20915591;28;20049;-72
2022/12/09 13:53:44;;;;;;;37.67;18.50;;;;;;;2.91;100.00;98997.75;20915243;28;20064;-72
2022/12/09 14:03:47;;;;;;;39.60;19.27;;;;;;;2.86;100.00;99001.25;20913949;28;20402;-72
2022/12/09 14:13:48;;;;;;;32.08;15.38;;;;;;;2.80;100.00;98994.41;20912631;28;20049;-73
2022/12/09 14:23:49;;;;;;;26.95;13.30;;;;;;;2.92;100.00;98990.84;20971345;28;20086;-72
2022/12/09 14:33:50;;;;;;;27.67;13.88;;;;;;;2.95;100.00;99002.03;20923253;28;20061;-72
2022/12/09 14:43:52;;;;;;;30.48;15.32;;;;;;;2.87;100.00;99016.72;20911480;28;20110;-73
2022/12/09 14:53:53;;;;;;;28.52;13.93;;;;;;;2.85;100.00;99038.31;20909374;28;20057;-72
2022/12/09 15:03:54;;;;;;;27.73;14.25;;;;;;;2.88;100.00;99038.28;20908467;28;20064;-73
2022/12/09 15:14:25;;;;;;;30.05;14.93;;;;;;;2.86;100.00;99050.34;20908814;28;20064;-72
2022/12/09 15:24:17;;;;;;;29.77;14.48;;;;;;;2.83;100.00;99053.84;20972145;28;20099;-73
2022/12/09 15:34:19;;;;;;;38.33;18.50;;;;;;;2.68;100.00;99062.50;20988736;28;20103;-73
2022/12/09 15:44:26;;;;;;;38.35;19.85;;;;;;;2.37;100.00;99068.72;20988018;28;20386;-73
2022/12/09 15:54:27;;;;;;;38.15;18.08;;;;;;;2.34;100.00;99079.88;20987205;28;20111;-73
2022/12/09 16:04:29;;;;;;;37.97;18.42;;;;;;;2.31;100.00;99078.19;20986391;28;20048;-74
2022/12/09 16:14:30;;;;;;;39.05;18.20;;;;;;;2.18;100.00;99076.50;20985994;28;20114;-73
2022/12/09 16:24:31;;;;;;;38.00;18.92;;;;;;;2.15;100.00;99071.34;20923033;28;20477;-73
2022/12/09 16:34:53;;;;;;;37.53;19.50;;;;;;;2.18;100.00;99073.06;20902544;28;20102;-73
2022/12/09 16:44:54;;;;;;;39.22;19.48;;;;;;;2.14;100.00;99074.81;20900622;28;20639;-74
2022/12/09 16:54:55;;;;;;;35.33;18.63;;;;;;;2.17;100.00;99079.97;20904550;28;20053;-77
2022/12/09 17:04:56;;;;;;;39.30;19.60;;;;;;;2.11;100.00;99103.22;20932004;28;20106;-77
2022/12/09 17:14:58;;;;;;;38.60;19.30;;;;;;;2.16;100.00;99093.75;20950894;28;20130;-78
2022/12/09 17:24:59;;;;;;;40.50;19.15;;;;;;;2.09;100.00;99104.94;20936446;28;20080;-78
2022/12/09 17:35:00;;;;;;;42.15;21.65;;;;;;;2.05;100.00;99103.22;20913769;28;20567;-78
2022/12/09 17:45:02;;;;;;;49.53;24.10;;;;;;;2.04;100.00;99112.69;20997414;28;20086;-78
2022/12/09 17:55:05;;;;;;;43.80;19.45;;;;;;;1.95;100.00;99117.00;21009795;28;20044;-78
2022/12/09 18:05:07;;;;;;;49.63;25.10;;;;;;;2.00;100.00;99117.88;21023887;28;20053;-78
2022/12/09 18:15:09;;;;;;;40.35;21.52;;;;;;;2.05;100.00;99126.47;20979483;28;20111;-78
2022/12/09 18:25:10;;;;;;;44.35;21.40;;;;;;;2.05;100.00;99139.38;21012878;28;20065;-78
2022/12/09 18:35:11;;;;;;;39.78;20.17;;;;;;;2.06;100.00;99146.28;21023275;28;20105;-78
2022/12/09 18:45:13;;;;;;;39.60;19.73;;;;;;;2.07;100.00;99137.66;21018039;28;20143;-78
2022/12/09 18:55:14;;;;;;;38.40;19.67;;;;;;;2.07;100.00;99142.81;21007491;28;20079;-78
2022/12/09 19:05:15;;;;;;;39.80;19.92;;;;;;;1.95;100.00;99142.81;21008915;28;20404;-78
2022/12/09 19:15:16;;;;;;;45.83;20.55;;;;;;;1.91;100.00;99151.44;20963001;28;20057;-78
2022/12/09 19:25:18;;;;;;;44.03;20.58;;;;;;;1.90;100.00;99153.16;20971772;28;20102;-78
2022/12/09 19:35:19;;;;;;;39.90;19.98;;;;;;;1.94;100.00;99159.19;20968033;28;20064;-78
2022/12/09 19:45:20;;;;;;;39.00;18.70;;;;;;;1.90;100.00;99165.19;21013196;28;20048;-79
2022/12/09 19:55:21;;;;;;;36.40;17.33;;;;;;;1.89;100.00;99178.97;20980270;28;20144;-78
2022/12/09 20:05:23;;;;;;;39.08;18.35;;;;;;;1.97;100.00;99177.25;20982055;28;20055;-78
2022/12/09 20:15:24;;;;;;;39.95;19.65;;;;;;;1.95;100.00;99184.13;20965477;28;20057;-79
2022/12/09 20:25:25;;;;;;;36.17;17.92;;;;;;;1.85;100.00;99190.16;20926328;28;20056;-79
2022/12/09 20:35:27;;;;;;;35.55;16.50;;;;;;;1.77;100.00;99201.34;20956652;28;20087;-79
2022/12/09 20:45:28;;;;;;;36.97;17.17;;;;;;;1.84;100.00;99199.63;20920299;28;20060;-78
2022/12/09 20:55:29;;;;;;;39.55;18.23;;;;;;;1.82;100.00;99208.22;20920382;28;20527;-78
2022/12/09 21:05:30;;;;;;;35.42;17.30;;;;;;;1.83;100.00;99209.97;20909091;28;20053;-78
2022/12/09 21:15:32;;;;;;;35.95;17.88;;;;;;;1.76;100.00;99209.94;20911302;28;20497;-78
2022/12/09 21:25:33;;;;;;;36.20;17.92;;;;;;;1.62;100.00;99210.78;20915384;28;20557;-78
2022/12/09 21:35:35;;;;;;;43.97;19.90;;;;;;;1.60;100.00;99213.38;20955000;28;20102;-77
2022/12/09 21:45:36;;;;;;;38.63;18.52;;;;;;;1.49;100.00;99207.34;20902559;28;20061;-77
2022/12/09 21:55:38;;;;;;;36.63;17.77;;;;;;;1.34;100.00;99221.03;20903635;28;20108;-75
2022/12/09 22:05:39;;;;;;;38.00;18.40;;;;;;;1.49;100.00;99235.72;20903778;28;20090;-77
2022/12/09 22:15:40;;;;;;;37.88;17.60;;;;;;;1.28;100.00;99246.81;20948311;28;20057;-76
2022/12/09 22:25:51;;;;;;;41.38;18.55;;;;;;;1.38;100.00;99245.13;20900916;28;20060;-75
2022/12/09 22:35:52;;;;;;;51.40;23.00;;;;;;;1.25;100.00;99242.53;20898382;28;20044;-76
2022/12/09 22:45:53;;;;;;;37.22;18.90;;;;;;;1.19;100.00;99241.63;20898122;28;20527;-76
2022/12/09 22:55:55;;;;;;;34.22;16.40;;;;;;;1.21;100.00;99255.41;20896109;28;20064;-76
2022/12/09 23:05:56;;;;;;;35.63;16.80;;;;;;;1.14;100.00;99253.66;20900156;28;20559;-76
2022/12/09 23:15:57;;;;;;;33.50;17.13;;;;;;;1.18;100.00;99253.66;21145511;23;20056;-76
2022/12/09 23:25:58;;;;;;;35.03;16.92;;;;;;;1.17;100.00;99262.25;21065326;28;20044;-77
2022/12/09 23:36:00;;;;;;;36.50;17.23;;;;;;;1.21;100.00;99258.84;21059782;28;20054;-76
2022/12/09 23:46:01;;;;;;;38.17;18.40;;;;;;;1.12;100.00;99250.22;21062775;28;20097;-76
2022/12/09 23:56:02;;;;;;;39.50;17.73;;;;;;;1.17;100.00;99244.22;21062080;28;20058;-76
